Terminal Aerodrome Forecast
Issued by NWS Sterling, VA

Current Version | Previous Version | Text Only | Print | Product List | Glossary Off
Versions: 1 2 3 4 5 6 7 8 9 10 11 12 13 14 15 16 17 18 19 20 21 22 23 24 25 26

000
FTUS41 KLWX 150500 RRA
TAFDCA
TAF
KDCA 150552Z 1506/1606 18009KT P6SM OVC035
     FM150800 18010KT P6SM -SHRA OVC020
     FM151100 18011KT 6SM -SHRA OVC009
     FM151400 18012G20KT 3SM SHRA OVC008
     FM151800 22010G25KT 3SM SHRA OVC025
     FM152100 32016G30KT 6SM -SHRA OVC030
     FM160000 33018G32KT P6SM OVC035
     FM160400 33020G29KT P6SM SCT130=

USA.gov is the U.S. government's official web portal to all federal, state and local government web resources and services.